createdAt,value
2019-01-15T14:06:25.275Z,35.955811
2019-01-15T14:06:27.579Z,35.858154
2019-01-15T14:06:29.892Z,35.858154
2019-01-15T14:22:25.798Z,35.388184
2019-01-15T14:22:28.100Z,35.290527
2019-01-15T14:22:30.408Z,35.290527
2019-01-15T14:27:09.075Z,35.290527
2019-01-15T14:27:10.552Z,35.290527
2019-01-15T14:27:12.860Z,35.290527
2019-01-15T14:35:50.672Z,34.448242
2019-01-15T14:35:52.979Z,34.344482
2019-01-15T14:35:55.288Z,34.344482
2019-01-15T14:40:13.856Z,34.942627
2019-01-15T14:40:16.164Z,34.844971
2019-01-15T14:41:41.635Z,37.145996
2019-01-15T14:49:14.840Z,35.174561
2019-01-15T15:09:20.651Z,36.138916
2019-01-15T15:09:27.958Z,35.839844
2019-01-15T15:09:35.308Z,35.540771
2019-01-15T15:09:42.660Z,36.236572
2019-01-15T15:09:49.968Z,36.236572
2019-01-15T15:09:57.350Z,35.9375
2019-01-15T15:10:04.696Z,35.9375
2019-01-15T15:10:12.036Z,35.839844
2019-01-15T15:10:19.350Z,35.742188
2019-01-15T15:10:26.769Z,35.742188
2019-01-15T15:10:34.031Z,35.9375
2019-01-15T15:10:41.360Z,35.9375
2019-01-15T15:10:48.661Z,35.839844
2019-01-15T15:10:55.974Z,36.437988
2019-01-15T15:11:03.299Z,36.639404
2019-01-15T15:11:10.609Z,36.535645
2019-01-15T15:11:17.987Z,36.340332
2019-01-15T15:11:25.306Z,36.138916
2019-01-15T15:11:32.622Z,35.9375
2019-01-15T15:11:39.945Z,35.9375
2019-01-15T15:11:47.252Z,35.839844
2019-01-15T15:11:54.598Z,36.639404
2019-01-15T15:12:02.019Z,36.340332
2019-01-15T15:12:09.329Z,36.236572
2019-01-15T15:12:16.841Z,36.236572
2019-01-15T15:12:24.165Z,35.839844
2019-01-15T15:12:31.472Z,35.638428
2019-01-15T15:12:38.864Z,35.540771
2019-01-15T15:12:47.162Z,35.540771
2019-01-15T15:12:54.616Z,35.540771
2019-01-15T15:13:01.896Z,35.540771
2019-01-15T15:13:09.198Z,35.638428
2019-01-15T15:13:16.525Z,35.839844
2019-01-15T15:13:23.838Z,35.9375
2019-01-15T15:13:31.179Z,35.9375
2019-01-15T15:13:38.482Z,36.04126
2019-01-15T15:13:45.823Z,36.157227
2019-01-15T15:13:53.200Z,36.04126
2019-01-15T15:14:00.489Z,36.053467
2019-01-15T15:14:07.810Z,35.9375
2019-01-15T15:14:15.133Z,35.955811
2019-01-15T15:14:22.458Z,35.955811
2019-01-15T15:14:29.775Z,36.053467
2019-01-15T15:14:37.083Z,36.053467
2019-01-15T15:14:44.403Z,36.053467
2019-01-15T15:14:51.723Z,35.858154
2019-01-15T15:14:59.084Z,35.754395
2019-01-15T15:15:06.415Z,35.858154
2019-01-15T15:15:13.717Z,35.955811
2019-01-15T15:15:21.031Z,35.955811
2019-01-15T15:15:28.348Z,36.157227
2019-01-15T15:15:35.700Z,36.157227
2019-01-15T15:15:43.047Z,36.157227
2019-01-15T15:15:50.380Z,36.157227
2019-01-15T15:16:03.581Z,36.254883
2019-01-15T15:16:06.980Z,36.157227
2019-01-15T15:16:14.298Z,36.157227
2019-01-15T15:16:21.622Z,36.254883
2019-01-15T15:16:28.935Z,36.254883
2019-01-15T15:16:36.266Z,36.254883
2019-01-15T15:16:43.575Z,36.254883
2019-01-15T15:16:50.895Z,36.254883
2019-01-15T15:16:58.209Z,36.254883
2019-01-15T15:17:05.579Z,36.254883
2019-01-15T15:17:12.898Z,36.254883
2019-01-15T15:17:21.224Z,36.254883
2019-01-15T15:17:28.517Z,36.254883
2019-01-15T15:17:35.820Z,36.254883
2019-01-15T15:17:43.169Z,36.254883
2019-01-15T15:17:50.487Z,36.157227
2019-01-15T15:17:57.833Z,36.053467
2019-01-15T15:18:05.140Z,36.157227
2019-01-15T15:18:12.495Z,36.053467
2019-01-15T15:18:19.800Z,35.656738
2019-01-15T15:18:27.116Z,35.577393
2019-01-15T15:18:34.447Z,35.473633
2019-01-15T15:18:41.761Z,35.577393
2019-01-15T15:18:49.071Z,35.577393
2019-01-15T15:18:56.388Z,35.5896
2019-01-15T15:19:03.709Z,35.5896
2019-01-15T15:19:11.059Z,35.5896
2019-01-15T15:19:18.384Z,35.60791
2019-01-15T15:19:25.717Z,35.809326
2019-01-15T15:19:33.054Z,35.809326
2019-01-15T15:19:40.374Z,35.906982
2019-01-15T15:19:47.686Z,36.206055
2019-01-15T15:19:54.991Z,36.224365
2019-01-15T15:20:02.380Z,36.425781
2019-01-15T15:20:09.613Z,36.92627
2019-01-15T15:20:16.930Z,37.121582
2019-01-15T15:20:24.245Z,36.724854
2019-01-15T15:20:31.605Z,36.425781
2019-01-15T15:20:38.923Z,36.224365
2019-01-15T15:20:50.924Z,36.425781
2019-01-15T15:20:55.534Z,36.92627
2019-01-15T15:21:02.917Z,37.207031
2019-01-15T15:21:10.271Z,36.907959
2019-01-15T15:21:17.593Z,36.907959
2019-01-15T15:21:24.982Z,36.706543
2019-01-15T15:21:32.267Z,36.804199
